sensor_id;sensor_type;location;lat;lon;timestamp;P1;durP1;ratioP1;P2;durP2;ratioP2
8232;SDS011;4157;48.074;9.952;2022-12-18T00:02:23;38.95;;;20.27;;
8232;SDS011;4157;48.074;9.952;2022-12-18T00:04:51;38.80;;;19.52;;
8232;SDS011;4157;48.074;9.952;2022-12-18T00:07:18;34.63;;;18.58;;
8232;SDS011;4157;48.074;9.952;2022-12-18T00:09:46;39.67;;;20.27;;
8232;SDS011;4157;48.074;9.952;2022-12-18T00:12:14;38.53;;;20.60;;
8232;SDS011;4157;48.074;9.952;2022-12-18T00:14:43;40.92;;;18.65;;
8232;SDS011;4157;48.074;9.952;2022-12-18T00:17:10;35.90;;;19.02;;
8232;SDS011;4157;48.074;9.952;2022-12-18T00:19:38;40.28;;;19.35;;
8232;SDS011;4157;48.074;9.952;2022-12-18T00:22:06;44.20;;;21.52;;
8232;SDS011;4157;48.074;9.952;2022-12-18T00:24:33;38.03;;;20.23;;
8232;SDS011;4157;48.074;9.952;2022-12-18T00:27:01;46.45;;;21.90;;
8232;SDS011;4157;48.074;9.952;2022-12-18T00:29:29;40.75;;;20.30;;
8232;SDS011;4157;48.074;9.952;2022-12-18T00:31:58;38.22;;;18.98;;
8232;SDS011;4157;48.074;9.952;2022-12-18T00:34:25;44.28;;;20.83;;
8232;SDS011;4157;48.074;9.952;2022-12-18T00:36:53;37.50;;;17.98;;
8232;SDS011;4157;48.074;9.952;2022-12-18T00:39:21;36.60;;;19.05;;
8232;SDS011;4157;48.074;9.952;2022-12-18T00:41:50;42.13;;;20.83;;
8232;SDS011;4157;48.074;9.952;2022-12-18T00:44:35;36.45;;;19.38;;
8232;SDS011;4157;48.074;9.952;2022-12-18T00:47:05;42.33;;;21.55;;
8232;SDS011;4157;48.074;9.952;2022-12-18T00:49:32;38.75;;;19.02;;
8232;SDS011;4157;48.074;9.952;2022-12-18T00:52:00;37.65;;;20.17;;
8232;SDS011;4157;48.074;9.952;2022-12-18T00:54:28;40.63;;;19.73;;
8232;SDS011;4157;48.074;9.952;2022-12-18T00:56:56;39.83;;;21.30;;
8232;SDS011;4157;48.074;9.952;2022-12-18T00:59:24;40.20;;;20.80;;
8232;SDS011;4157;48.074;9.952;2022-12-18T01:01:51;41.55;;;21.38;;
8232;SDS011;4157;48.074;9.952;2022-12-18T01:04:21;40.72;;;21.33;;
8232;SDS011;4157;48.074;9.952;2022-12-18T01:06:49;37.97;;;20.25;;
8232;SDS011;4157;48.074;9.952;2022-12-18T01:09:17;38.30;;;19.38;;
8232;SDS011;4157;48.074;9.952;2022-12-18T01:11:44;39.53;;;20.33;;
8232;SDS011;4157;48.074;9.952;2022-12-18T01:14:12;36.38;;;19.50;;
8232;SDS011;4157;48.074;9.952;2022-12-18T01:16:40;39.08;;;20.40;;
8232;SDS011;4157;48.074;9.952;2022-12-18T01:19:07;38.35;;;20.10;;
8232;SDS011;4157;48.074;9.952;2022-12-18T01:21:36;40.40;;;19.38;;
8232;SDS011;4157;48.074;9.952;2022-12-18T01:24:04;38.25;;;20.10;;
8232;SDS011;4157;48.074;9.952;2022-12-18T01:26:33;37.42;;;19.08;;
8232;SDS011;4157;48.074;9.952;2022-12-18T01:29:00;42.83;;;22.90;;
8232;SDS011;4157;48.074;9.952;2022-12-18T01:31:29;36.75;;;20.10;;
8232;SDS011;4157;48.074;9.952;2022-12-18T01:33:57;40.83;;;21.45;;
8232;SDS011;4157;48.074;9.952;2022-12-18T01:36:25;44.75;;;22.63;;
8232;SDS011;4157;48.074;9.952;2022-12-18T01:38:55;40.03;;;20.95;;
8232;SDS011;4157;48.074;9.952;2022-12-18T01:41:24;40.60;;;19.92;;
8232;SDS011;4157;48.074;9.952;2022-12-18T01:43:53;40.78;;;21.17;;
8232;SDS011;4157;48.074;9.952;2022-12-18T01:46:21;40.72;;;19.73;;
8232;SDS011;4157;48.074;9.952;2022-12-18T01:48:50;38.78;;;19.05;;
8232;SDS011;4157;48.074;9.952;2022-12-18T01:51:18;39.15;;;19.48;;
8232;SDS011;4157;48.074;9.952;2022-12-18T01:53:46;35.25;;;17.80;;
8232;SDS011;4157;48.074;9.952;2022-12-18T01:56:16;37.92;;;17.85;;
8232;SDS011;4157;48.074;9.952;2022-12-18T01:58:46;36.53;;;18.40;;
8232;SDS011;4157;48.074;9.952;2022-12-18T02:01:16;37.20;;;19.20;;
8232;SDS011;4157;48.074;9.952;2022-12-18T02:03:44;39.53;;;20.40;;
8232;SDS011;4157;48.074;9.952;2022-12-18T02:06:13;39.28;;;20.30;;
8232;SDS011;4157;48.074;9.952;2022-12-18T02:08:48;35.60;;;17.50;;
8232;SDS011;4157;48.074;9.952;2022-12-18T02:11:20;42.47;;;20.67;;
8232;SDS011;4157;48.074;9.952;2022-12-18T02:13:53;40.80;;;20.60;;
8232;SDS011;4157;48.074;9.952;2022-12-18T02:16:25;39.05;;;19.75;;
8232;SDS011;4157;48.074;9.952;2022-12-18T02:18:58;39.03;;;18.88;;
8232;SDS011;4157;48.074;9.952;2022-12-18T02:21:29;38.83;;;19.67;;
8232;SDS011;4157;48.074;9.952;2022-12-18T02:24:03;38.70;;;18.77;;
8232;SDS011;4157;48.074;9.952;2022-12-18T02:26:37;36.03;;;18.58;;
8232;SDS011;4157;48.074;9.952;2022-12-18T02:29:08;35.17;;;17.48;;
8232;SDS011;4157;48.074;9.952;2022-12-18T02:31:39;32.80;;;16.73;;
8232;SDS011;4157;48.074;9.952;2022-12-18T02:34:07;38.28;;;19.58;;
8232;SDS011;4157;48.074;9.952;2022-12-18T02:36:38;38.17;;;18.52;;
8232;SDS011;4157;48.074;9.952;2022-12-18T02:39:07;39.45;;;17.70;;
8232;SDS011;4157;48.074;9.952;2022-12-18T02:41:40;33.05;;;17.13;;
8232;SDS011;4157;48.074;9.952;2022-12-18T02:44:09;34.85;;;18.70;;
8232;SDS011;4157;48.074;9.952;2022-12-18T02:46:37;34.40;;;18.25;;
8232;SDS011;4157;48.074;9.952;2022-12-18T02:49:12;34.10;;;15.90;;
8232;SDS011;4157;48.074;9.952;2022-12-18T02:51:47;36.53;;;18.05;;
8232;SDS011;4157;48.074;9.952;2022-12-18T02:54:18;42.67;;;19.42;;
8232;SDS011;4157;48.074;9.952;2022-12-18T02:56:50;36.30;;;17.88;;
8232;SDS011;4157;48.074;9.952;2022-12-18T02:59:21;35.22;;;19.23;;
8232;SDS011;4157;48.074;9.952;2022-12-18T03:01:56;34.65;;;18.05;;
8232;SDS011;4157;48.074;9.952;2022-12-18T03:04:26;34.25;;;17.17;;
8232;SDS011;4157;48.074;9.952;2022-12-18T03:06:55;34.65;;;18.30;;
8232;SDS011;4157;48.074;9.952;2022-12-18T03:09:27;34.80;;;18.63;;
8232;SDS011;4157;48.074;9.952;2022-12-18T03:11:58;36.85;;;18.30;;
8232;SDS011;4157;48.074;9.952;2022-12-18T03:14:47;33.88;;;16.60;;
8232;SDS011;4157;48.074;9.952;2022-12-18T03:17:17;40.40;;;17.63;;
8232;SDS011;4157;48.074;9.952;2022-12-18T03:19:47;39.97;;;18.45;;
8232;SDS011;4157;48.074;9.952;2022-12-18T03:22:16;35.15;;;17.30;;
8232;SDS011;4157;48.074;9.952;2022-12-18T03:24:48;33.80;;;17.58;;
8232;SDS011;4157;48.074;9.952;2022-12-18T03:27:18;38.05;;;18.73;;
8232;SDS011;4157;48.074;9.952;2022-12-18T03:29:49;38.70;;;19.42;;
8232;SDS011;4157;48.074;9.952;2022-12-18T03:32:25;38.78;;;18.58;;
8232;SDS011;4157;48.074;9.952;2022-12-18T03:34:53;39.65;;;18.60;;
8232;SDS011;4157;48.074;9.952;2022-12-18T03:37:24;41.75;;;19.33;;
8232;SDS011;4157;48.074;9.952;2022-12-18T03:39:53;40.92;;;19.02;;
8232;SDS011;4157;48.074;9.952;2022-12-18T03:42:25;40.13;;;18.48;;
8232;SDS011;4157;48.074;9.952;2022-12-18T03:45:06;34.42;;;16.38;;
8232;SDS011;4157;48.074;9.952;2022-12-18T03:47:36;38.13;;;18.73;;
8232;SDS011;4157;48.074;9.952;2022-12-18T03:50:08;33.38;;;16.73;;
8232;SDS011;4157;48.074;9.952;2022-12-18T03:52:40;38.45;;;18.08;;
8232;SDS011;4157;48.074;9.952;2022-12-18T03:55:09;35.25;;;18.02;;
8232;SDS011;4157;48.074;9.952;2022-12-18T03:57:39;36.42;;;16.67;;
8232;SDS011;4157;48.074;9.952;2022-12-18T04:00:10;40.30;;;18.92;;
8232;SDS011;4157;48.074;9.952;2022-12-18T04:02:42;39.55;;;19.08;;
8232;SDS011;4157;48.074;9.952;2022-12-18T04:05:14;38.47;;;19.33;;
8232;SDS011;4157;48.074;9.952;2022-12-18T04:07:43;37.42;;;17.95;;
8232;SDS011;4157;48.074;9.952;2022-12-18T04:10:13;39.63;;;18.77;;
8232;SDS011;4157;48.074;9.952;2022-12-18T04:12:43;41.58;;;19.13;;
8232;SDS011;4157;48.074;9.952;2022-12-18T04:15:13;34.72;;;16.75;;
8232;SDS011;4157;48.074;9.952;2022-12-18T04:17:43;36.28;;;18.10;;
8232;SDS011;4157;48.074;9.952;2022-12-18T04:20:15;44.33;;;19.70;;
8232;SDS011;4157;48.074;9.952;2022-12-18T04:22:44;36.75;;;17.65;;
8232;SDS011;4157;48.074;9.952;2022-12-18T04:25:11;36.35;;;18.90;;
8232;SDS011;4157;48.074;9.952;2022-12-18T04:27:51;41.22;;;19.27;;
8232;SDS011;4157;48.074;9.952;2022-12-18T04:30:18;38.33;;;18.33;;
8232;SDS011;4157;48.074;9.952;2022-12-18T04:32:46;46.70;;;21.23;;
8232;SDS011;4157;48.074;9.952;2022-12-18T04:35:14;40.63;;;18.15;;
8232;SDS011;4157;48.074;9.952;2022-12-18T04:37:43;39.63;;;19.35;;
8232;SDS011;4157;48.074;9.952;2022-12-18T04:40:11;42.42;;;19.02;;
8232;SDS011;4157;48.074;9.952;2022-12-18T04:42:43;37.88;;;18.15;;
8232;SDS011;4157;48.074;9.952;2022-12-18T04:45:12;36.33;;;19.33;;
8232;SDS011;4157;48.074;9.952;2022-12-18T04:47:39;41.30;;;20.00;;
8232;SDS011;4157;48.074;9.952;2022-12-18T04:50:07;41.00;;;19.95;;
8232;SDS011;4157;48.074;9.952;2022-12-18T04:52:35;40.08;;;18.65;;
8232;SDS011;4157;48.074;9.952;2022-12-18T04:55:03;36.63;;;19.65;;
8232;SDS011;4157;48.074;9.952;2022-12-18T04:57:30;40.13;;;19.23;;
8232;SDS011;4157;48.074;9.952;2022-12-18T04:59:58;39.42;;;19.08;;
8232;SDS011;4157;48.074;9.952;2022-12-18T05:02:27;38.78;;;18.63;;
8232;SDS011;4157;48.074;9.952;2022-12-18T05:04:55;37.53;;;18.55;;
8232;SDS011;4157;48.074;9.952;2022-12-18T05:07:22;45.58;;;20.33;;
8232;SDS011;4157;48.074;9.952;2022-12-18T05:09:50;41.92;;;19.98;;
8232;SDS011;4157;48.074;9.952;2022-12-18T05:12:18;38.42;;;18.55;;
8232;SDS011;4157;48.074;9.952;2022-12-18T05:14:45;39.22;;;19.42;;
8232;SDS011;4157;48.074;9.952;2022-12-18T05:17:13;41.15;;;18.75;;
8232;SDS011;4157;48.074;9.952;2022-12-18T05:19:42;38.20;;;18.08;;
8232;SDS011;4157;48.074;9.952;2022-12-18T05:22:10;36.83;;;18.25;;
8232;SDS011;4157;48.074;9.952;2022-12-18T05:24:37;42.70;;;19.17;;
8232;SDS011;4157;48.074;9.952;2022-12-18T05:27:05;42.85;;;20.50;;
8232;SDS011;4157;48.074;9.952;2022-12-18T05:29:33;39.30;;;19.52;;
8232;SDS011;4157;48.074;9.952;2022-12-18T05:32:00;39.45;;;19.85;;
8232;SDS011;4157;48.074;9.952;2022-12-18T05:34:28;41.55;;;20.42;;
8232;SDS011;4157;48.074;9.952;2022-12-18T05:36:58;40.88;;;18.77;;
8232;SDS011;4157;48.074;9.952;2022-12-18T05:39:25;43.42;;;20.42;;
8232;SDS011;4157;48.074;9.952;2022-12-18T05:41:53;37.95;;;17.95;;
8232;SDS011;4157;48.074;9.952;2022-12-18T05:44:21;40.92;;;19.45;;
8232;SDS011;4157;48.074;9.952;2022-12-18T05:46:48;41.55;;;20.10;;
8232;SDS011;4157;48.074;9.952;2022-12-18T05:49:16;39.95;;;18.40;;
8232;SDS011;4157;48.074;9.952;2022-12-18T05:51:44;40.75;;;18.48;;
8232;SDS011;4157;48.074;9.952;2022-12-18T05:54:13;42.88;;;18.80;;
8232;SDS011;4157;48.074;9.952;2022-12-18T05:56:40;37.72;;;19.25;;
8232;SDS011;4157;48.074;9.952;2022-12-18T05:59:08;39.92;;;19.33;;
8232;SDS011;4157;48.074;9.952;2022-12-18T06:01:36;42.55;;;19.10;;
8232;SDS011;4157;48.074;9.952;2022-12-18T06:04:04;36.90;;;17.83;;
8232;SDS011;4157;48.074;9.952;2022-12-18T06:06:31;40.45;;;17.40;;
8232;SDS011;4157;48.074;9.952;2022-12-18T06:08:59;40.95;;;19.27;;
8232;SDS011;4157;48.074;9.952;2022-12-18T06:11:28;46.47;;;21.23;;
8232;SDS011;4157;48.074;9.952;2022-12-18T06:13:56;40.47;;;18.80;;
8232;SDS011;4157;48.074;9.952;2022-12-18T06:16:24;41.05;;;19.70;;
8232;SDS011;4157;48.074;9.952;2022-12-18T06:18:52;45.85;;;20.75;;
8232;SDS011;4157;48.074;9.952;2022-12-18T06:21:19;41.83;;;18.63;;
8232;SDS011;4157;48.074;9.952;2022-12-18T06:23:47;40.35;;;18.58;;
8232;SDS011;4157;48.074;9.952;2022-12-18T06:26:15;41.88;;;17.95;;
8232;SDS011;4157;48.074;9.952;2022-12-18T06:28:44;40.45;;;19.27;;
8232;SDS011;4157;48.074;9.952;2022-12-18T06:31:12;45.38;;;19.45;;
8232;SDS011;4157;48.074;9.952;2022-12-18T06:33:40;40.80;;;18.55;;
8232;SDS011;4157;48.074;9.952;2022-12-18T06:36:08;43.72;;;19.70;;
8232;SDS011;4157;48.074;9.952;2022-12-18T06:38:37;43.35;;;20.13;;
8232;SDS011;4157;48.074;9.952;2022-12-18T06:41:06;47.92;;;19.05;;
8232;SDS011;4157;48.074;9.952;2022-12-18T06:43:33;43.20;;;18.50;;
8232;SDS011;4157;48.074;9.952;2022-12-18T06:46:03;43.85;;;18.27;;
8232;SDS011;4157;48.074;9.952;2022-12-18T06:48:31;51.47;;;21.57;;
8232;SDS011;4157;48.074;9.952;2022-12-18T06:50:59;32.20;;;15.83;;
8232;SDS011;4157;48.074;9.952;2022-12-18T06:53:27;37.63;;;18.00;;
8232;SDS011;4157;48.074;9.952;2022-12-18T06:55:59;34.58;;;16.77;;
8232;SDS011;4157;48.074;9.952;2022-12-18T06:58:27;41.33;;;17.73;;
8232;SDS011;4157;48.074;9.952;2022-12-18T07:00:59;38.75;;;16.98;;
8232;SDS011;4157;48.074;9.952;2022-12-18T07:03:28;36.88;;;16.63;;
8232;SDS011;4157;48.074;9.952;2022-12-18T07:05:56;40.95;;;18.20;;
8232;SDS011;4157;48.074;9.952;2022-12-18T07:08:24;40.03;;;17.13;;
8232;SDS011;4157;48.074;9.952;2022-12-18T07:10:51;42.72;;;19.98;;
8232;SDS011;4157;48.074;9.952;2022-12-18T07:13:19;42.03;;;19.10;;
8232;SDS011;4157;48.074;9.952;2022-12-18T07:15:47;38.60;;;17.58;;
8232;SDS011;4157;48.074;9.952;2022-12-18T07:18:14;37.63;;;16.83;;
8232;SDS011;4157;48.074;9.952;2022-12-18T07:20:43;38.10;;;16.37;;
8232;SDS011;4157;48.074;9.952;2022-12-18T07:23:11;34.55;;;16.20;;
8232;SDS011;4157;48.074;9.952;2022-12-18T07:25:39;38.67;;;17.70;;
8232;SDS011;4157;48.074;9.952;2022-12-18T07:28:06;39.72;;;17.52;;
8232;SDS011;4157;48.074;9.952;2022-12-18T07:30:36;35.60;;;16.30;;
8232;SDS011;4157;48.074;9.952;2022-12-18T07:33:04;37.15;;;16.80;;
8232;SDS011;4157;48.074;9.952;2022-12-18T07:35:32;38.45;;;16.83;;
8232;SDS011;4157;48.074;9.952;2022-12-18T07:38:04;40.57;;;19.77;;
8232;SDS011;4157;48.074;9.952;2022-12-18T07:40:31;40.78;;;17.95;;
8232;SDS011;4157;48.074;9.952;2022-12-18T07:42:59;35.03;;;16.65;;
8232;SDS011;4157;48.074;9.952;2022-12-18T07:45:27;41.63;;;18.13;;
8232;SDS011;4157;48.074;9.952;2022-12-18T07:47:56;41.90;;;19.35;;
8232;SDS011;4157;48.074;9.952;2022-12-18T07:50:23;38.03;;;17.23;;
8232;SDS011;4157;48.074;9.952;2022-12-18T07:52:51;40.00;;;18.70;;
8232;SDS011;4157;48.074;9.952;2022-12-18T07:55:20;40.13;;;16.87;;
8232;SDS011;4157;48.074;9.952;2022-12-18T07:57:48;38.75;;;17.63;;
8232;SDS011;4157;48.074;9.952;2022-12-18T08:00:16;36.13;;;16.05;;
8232;SDS011;4157;48.074;9.952;2022-12-18T08:02:43;38.47;;;17.38;;
8232;SDS011;4157;48.074;9.952;2022-12-18T08:05:11;39.27;;;16.97;;
8232;SDS011;4157;48.074;9.952;2022-12-18T08:07:39;35.60;;;16.47;;
8232;SDS011;4157;48.074;9.952;2022-12-18T08:10:07;34.33;;;15.50;;
8232;SDS011;4157;48.074;9.952;2022-12-18T08:12:36;37.23;;;16.13;;
8232;SDS011;4157;48.074;9.952;2022-12-18T08:15:04;34.53;;;16.30;;
8232;SDS011;4157;48.074;9.952;2022-12-18T08:17:32;30.65;;;13.70;;
8232;SDS011;4157;48.074;9.952;2022-12-18T08:20:00;36.00;;;14.87;;
8232;SDS011;4157;48.074;9.952;2022-12-18T08:22:28;31.97;;;15.07;;
8232;SDS011;4157;48.074;9.952;2022-12-18T08:24:55;37.23;;;16.07;;
8232;SDS011;4157;48.074;9.952;2022-12-18T08:27:23;33.53;;;14.65;;
8232;SDS011;4157;48.074;9.952;2022-12-18T08:29:52;29.88;;;13.25;;
8232;SDS011;4157;48.074;9.952;2022-12-18T08:32:20;37.30;;;14.93;;
8232;SDS011;4157;48.074;9.952;2022-12-18T08:34:47;39.97;;;17.33;;
8232;SDS011;4157;48.074;9.952;2022-12-18T08:37:15;30.40;;;15.67;;
8232;SDS011;4157;48.074;9.952;2022-12-18T08:39:43;34.93;;;15.03;;
8232;SDS011;4157;48.074;9.952;2022-12-18T08:42:11;35.08;;;15.90;;
8232;SDS011;4157;48.074;9.952;2022-12-18T08:45:00;33.37;;;14.97;;
8232;SDS011;4157;48.074;9.952;2022-12-18T08:47:27;31.40;;;14.17;;
8232;SDS011;4157;48.074;9.952;2022-12-18T08:49:55;35.90;;;15.32;;
8232;SDS011;4157;48.074;9.952;2022-12-18T08:52:23;36.63;;;15.50;;
8232;SDS011;4157;48.074;9.952;2022-12-18T08:54:51;37.83;;;16.92;;
8232;SDS011;4157;48.074;9.952;2022-12-18T08:57:19;36.78;;;15.73;;
8232;SDS011;4157;48.074;9.952;2022-12-18T08:59:46;37.73;;;15.63;;
8232;SDS011;4157;48.074;9.952;2022-12-18T09:02:16;34.55;;;15.27;;
8232;SDS011;4157;48.074;9.952;2022-12-18T09:04:43;35.50;;;15.73;;
8232;SDS011;4157;48.074;9.952;2022-12-18T09:07:13;36.65;;;16.85;;
8232;SDS011;4157;48.074;9.952;2022-12-18T09:09:41;37.58;;;18.20;;
8232;SDS011;4157;48.074;9.952;2022-12-18T09:12:09;38.33;;;16.20;;
8232;SDS011;4157;48.074;9.952;2022-12-18T09:14:37;34.77;;;15.43;;
8232;SDS011;4157;48.074;9.952;2022-12-18T09:17:04;31.80;;;14.90;;
8232;SDS011;4157;48.074;9.952;2022-12-18T09:19:33;41.08;;;19.23;;
8232;SDS011;4157;48.074;9.952;2022-12-18T09:22:01;41.42;;;16.58;;
8232;SDS011;4157;48.074;9.952;2022-12-18T09:24:29;39.05;;;16.40;;
8232;SDS011;4157;48.074;9.952;2022-12-18T09:26:56;41.13;;;19.10;;
8232;SDS011;4157;48.074;9.952;2022-12-18T09:29:24;36.30;;;16.03;;
8232;SDS011;4157;48.074;9.952;2022-12-18T09:31:52;37.15;;;15.45;;
8232;SDS011;4157;48.074;9.952;2022-12-18T09:34:19;32.57;;;15.00;;
8232;SDS011;4157;48.074;9.952;2022-12-18T09:36:48;34.80;;;15.20;;
8232;SDS011;4157;48.074;9.952;2022-12-18T09:39:16;35.10;;;15.20;;
8232;SDS011;4157;48.074;9.952;2022-12-18T09:41:45;35.37;;;13.77;;
8232;SDS011;4157;48.074;9.952;2022-12-18T09:44:25;31.25;;;14.45;;
8232;SDS011;4157;48.074;9.952;2022-12-18T09:47:03;33.47;;;14.27;;
8232;SDS011;4157;48.074;9.952;2022-12-18T09:49:35;34.50;;;15.53;;
8232;SDS011;4157;48.074;9.952;2022-12-18T09:52:09;34.77;;;15.80;;
8232;SDS011;4157;48.074;9.952;2022-12-18T09:54:39;38.92;;;16.77;;
8232;SDS011;4157;48.074;9.952;2022-12-18T09:57:09;36.15;;;15.23;;
8232;SDS011;4157;48.074;9.952;2022-12-18T09:59:38;34.57;;;15.10;;
8232;SDS011;4157;48.074;9.952;2022-12-18T10:02:16;39.95;;;16.02;;
8232;SDS011;4157;48.074;9.952;2022-12-18T10:04:44;31.98;;;15.38;;
8232;SDS011;4157;48.074;9.952;2022-12-18T10:07:17;35.67;;;15.70;;
8232;SDS011;4157;48.074;9.952;2022-12-18T10:09:48;34.92;;;15.32;;
8232;SDS011;4157;48.074;9.952;2022-12-18T10:12:19;36.67;;;15.68;;
8232;SDS011;4157;48.074;9.952;2022-12-18T10:14:49;36.47;;;14.80;;
8232;SDS011;4157;48.074;9.952;2022-12-18T10:17:22;37.25;;;16.08;;
8232;SDS011;4157;48.074;9.952;2022-12-18T10:19:51;40.05;;;18.50;;
8232;SDS011;4157;48.074;9.952;2022-12-18T10:22:25;37.22;;;15.95;;
8232;SDS011;4157;48.074;9.952;2022-12-18T10:24:55;34.40;;;16.10;;
8232;SDS011;4157;48.074;9.952;2022-12-18T10:27:27;30.98;;;14.68;;
8232;SDS011;4157;48.074;9.952;2022-12-18T10:29:54;35.88;;;14.70;;
8232;SDS011;4157;48.074;9.952;2022-12-18T10:32:23;35.08;;;14.20;;
8232;SDS011;4157;48.074;9.952;2022-12-18T10:34:52;29.95;;;13.90;;
8232;SDS011;4157;48.074;9.952;2022-12-18T10:37:22;32.22;;;15.70;;
8232;SDS011;4157;48.074;9.952;2022-12-18T10:40:04;34.65;;;13.82;;
8232;SDS011;4157;48.074;9.952;2022-12-18T10:42:33;60.78;;;29.63;;
8232;SDS011;4157;48.074;9.952;2022-12-18T10:45:01;34.17;;;15.93;;
8232;SDS011;4157;48.074;9.952;2022-12-18T10:47:29;32.33;;;15.00;;
8232;SDS011;4157;48.074;9.952;2022-12-18T10:49:57;34.30;;;16.58;;
8232;SDS011;4157;48.074;9.952;2022-12-18T10:52:25;32.58;;;15.20;;
8232;SDS011;4157;48.074;9.952;2022-12-18T10:54:54;33.30;;;13.70;;
8232;SDS011;4157;48.074;9.952;2022-12-18T10:57:31;36.53;;;15.93;;
8232;SDS011;4157;48.074;9.952;2022-12-18T11:00:00;26.30;;;12.90;;
8232;SDS011;4157;48.074;9.952;2022-12-18T11:02:34;35.33;;;13.77;;
8232;SDS011;4157;48.074;9.952;2022-12-18T11:05:03;32.23;;;14.27;;
8232;SDS011;4157;48.074;9.952;2022-12-18T11:07:46;32.35;;;13.80;;
8232;SDS011;4157;48.074;9.952;2022-12-18T11:10:15;29.55;;;14.63;;
8232;SDS011;4157;48.074;9.952;2022-12-18T11:12:45;28.25;;;13.27;;
8232;SDS011;4157;48.074;9.952;2022-12-18T11:15:15;36.95;;;15.23;;
8232;SDS011;4157;48.074;9.952;2022-12-18T11:17:44;32.60;;;15.10;;
8232;SDS011;4157;48.074;9.952;2022-12-18T11:20:21;32.70;;;16.63;;
8232;SDS011;4157;48.074;9.952;2022-12-18T11:22:55;30.15;;;13.75;;
8232;SDS011;4157;48.074;9.952;2022-12-18T11:25:23;30.15;;;13.50;;
8232;SDS011;4157;48.074;9.952;2022-12-18T11:27:54;27.70;;;13.15;;
8232;SDS011;4157;48.074;9.952;2022-12-18T11:30:23;34.30;;;15.48;;
8232;SDS011;4157;48.074;9.952;2022-12-18T11:32:52;30.88;;;13.98;;
8232;SDS011;4157;48.074;9.952;2022-12-18T11:35:21;28.95;;;13.68;;
8232;SDS011;4157;48.074;9.952;2022-12-18T11:37:53;32.15;;;14.23;;
8232;SDS011;4157;48.074;9.952;2022-12-18T11:40:25;30.17;;;13.50;;
8232;SDS011;4157;48.074;9.952;2022-12-18T11:42:57;33.17;;;13.77;;
8232;SDS011;4157;48.074;9.952;2022-12-18T11:45:27;31.75;;;12.98;;
8232;SDS011;4157;48.074;9.952;2022-12-18T11:47:57;33.78;;;14.80;;
8232;SDS011;4157;48.074;9.952;2022-12-18T11:50:28;32.80;;;15.13;;
8232;SDS011;4157;48.074;9.952;2022-12-18T11:52:57;31.80;;;14.90;;
8232;SDS011;4157;48.074;9.952;2022-12-18T11:55:28;31.80;;;15.02;;
8232;SDS011;4157;48.074;9.952;2022-12-18T11:58:00;35.60;;;15.80;;
8232;SDS011;4157;48.074;9.952;2022-12-18T12:00:30;31.77;;;14.77;;
8232;SDS011;4157;48.074;9.952;2022-12-18T12:03:13;36.67;;;15.05;;
8232;SDS011;4157;48.074;9.952;2022-12-18T12:05:45;30.35;;;15.00;;
8232;SDS011;4157;48.074;9.952;2022-12-18T12:08:17;33.88;;;13.65;;
8232;SDS011;4157;48.074;9.952;2022-12-18T12:10:52;35.20;;;15.77;;
8232;SDS011;4157;48.074;9.952;2022-12-18T12:13:25;33.85;;;15.00;;
8232;SDS011;4157;48.074;9.952;2022-12-18T12:15:59;34.15;;;14.55;;
8232;SDS011;4157;48.074;9.952;2022-12-18T12:18:33;30.30;;;13.60;;
8232;SDS011;4157;48.074;9.952;2022-12-18T12:21:06;31.30;;;14.70;;
8232;SDS011;4157;48.074;9.952;2022-12-18T12:23:39;34.72;;;14.63;;
8232;SDS011;4157;48.074;9.952;2022-12-18T12:26:09;35.90;;;16.20;;
8232;SDS011;4157;48.074;9.952;2022-12-18T12:28:47;37.17;;;15.45;;
8232;SDS011;4157;48.074;9.952;2022-12-18T12:31:21;37.05;;;16.30;;
8232;SDS011;4157;48.074;9.952;2022-12-18T12:33:52;33.97;;;16.00;;
8232;SDS011;4157;48.074;9.952;2022-12-18T12:36:26;32.22;;;15.25;;
8232;SDS011;4157;48.074;9.952;2022-12-18T12:38:59;33.65;;;15.20;;
8232;SDS011;4157;48.074;9.952;2022-12-18T12:41:30;51.92;;;25.05;;
8232;SDS011;4157;48.074;9.952;2022-12-18T12:44:23;31.38;;;14.00;;
8232;SDS011;4157;48.074;9.952;2022-12-18T12:46:52;31.40;;;14.68;;
8232;SDS011;4157;48.074;9.952;2022-12-18T12:49:23;30.52;;;12.90;;
8232;SDS011;4157;48.074;9.952;2022-12-18T12:51:54;31.90;;;15.43;;
8232;SDS011;4157;48.074;9.952;2022-12-18T12:56:57;33.22;;;14.30;;
8232;SDS011;4157;48.074;9.952;2022-12-18T12:59:29;31.52;;;13.57;;
8232;SDS011;4157;48.074;9.952;2022-12-18T13:01:59;35.17;;;16.45;;
8232;SDS011;4157;48.074;9.952;2022-12-18T13:04:30;34.78;;;14.80;;
8232;SDS011;4157;48.074;9.952;2022-12-18T13:07:01;36.08;;;15.18;;
8232;SDS011;4157;48.074;9.952;2022-12-18T13:09:31;34.58;;;15.85;;
8232;SDS011;4157;48.074;9.952;2022-12-18T13:12:01;33.42;;;16.83;;
8232;SDS011;4157;48.074;9.952;2022-12-18T13:14:48;33.47;;;14.45;;
8232;SDS011;4157;48.074;9.952;2022-12-18T13:17:24;36.05;;;15.77;;
8232;SDS011;4157;48.074;9.952;2022-12-18T13:20:08;33.58;;;16.23;;
8232;SDS011;4157;48.074;9.952;2022-12-18T13:22:36;30.52;;;13.27;;
8232;SDS011;4157;48.074;9.952;2022-12-18T13:27:55;35.33;;;16.50;;
8232;SDS011;4157;48.074;9.952;2022-12-18T13:33:39;37.38;;;17.10;;
8232;SDS011;4157;48.074;9.952;2022-12-18T13:36:14;32.00;;;15.35;;
8232;SDS011;4157;48.074;9.952;2022-12-18T13:38:43;34.10;;;15.20;;
8232;SDS011;4157;48.074;9.952;2022-12-18T13:41:24;36.72;;;15.82;;
8232;SDS011;4157;48.074;9.952;2022-12-18T13:43:52;34.63;;;14.85;;
8232;SDS011;4157;48.074;9.952;2022-12-18T13:46:24;34.00;;;14.80;;
8232;SDS011;4157;48.074;9.952;2022-12-18T13:48:58;32.10;;;14.63;;
8232;SDS011;4157;48.074;9.952;2022-12-18T13:51:28;32.30;;;15.98;;
8232;SDS011;4157;48.074;9.952;2022-12-18T13:53:58;35.95;;;15.18;;
8232;SDS011;4157;48.074;9.952;2022-12-18T13:56:26;35.45;;;15.15;;
8232;SDS011;4157;48.074;9.952;2022-12-18T13:59:05;34.08;;;16.98;;
8232;SDS011;4157;48.074;9.952;2022-12-18T14:01:34;31.58;;;14.23;;
8232;SDS011;4157;48.074;9.952;2022-12-18T14:04:10;33.22;;;15.63;;
8232;SDS011;4157;48.074;9.952;2022-12-18T14:06:37;37.55;;;18.08;;
8232;SDS011;4157;48.074;9.952;2022-12-18T14:09:05;34.28;;;15.98;;
8232;SDS011;4157;48.074;9.952;2022-12-18T14:11:33;33.53;;;15.35;;
8232;SDS011;4157;48.074;9.952;2022-12-18T14:14:02;30.27;;;14.18;;
8232;SDS011;4157;48.074;9.952;2022-12-18T14:16:32;32.95;;;12.77;;
8232;SDS011;4157;48.074;9.952;2022-12-18T14:19:01;33.72;;;14.77;;
8232;SDS011;4157;48.074;9.952;2022-12-18T14:21:31;32.17;;;15.57;;
8232;SDS011;4157;48.074;9.952;2022-12-18T14:24:12;33.08;;;14.60;;
8232;SDS011;4157;48.074;9.952;2022-12-18T14:26:41;32.35;;;14.63;;
8232;SDS011;4157;48.074;9.952;2022-12-18T14:29:19;34.08;;;15.00;;
8232;SDS011;4157;48.074;9.952;2022-12-18T14:32:03;30.23;;;13.30;;
8232;SDS011;4157;48.074;9.952;2022-12-18T14:34:31;32.45;;;15.25;;
8232;SDS011;4157;48.074;9.952;2022-12-18T14:37:00;34.80;;;15.75;;
8232;SDS011;4157;48.074;9.952;2022-12-18T14:39:27;35.08;;;15.95;;
8232;SDS011;4157;48.074;9.952;2022-12-18T14:41:55;36.95;;;15.95;;
8232;SDS011;4157;48.074;9.952;2022-12-18T14:44:23;38.35;;;16.70;;
8232;SDS011;4157;48.074;9.952;2022-12-18T14:46:50;37.55;;;16.48;;
8232;SDS011;4157;48.074;9.952;2022-12-18T14:49:19;35.58;;;16.02;;
8232;SDS011;4157;48.074;9.952;2022-12-18T14:51:49;34.28;;;14.52;;
8232;SDS011;4157;48.074;9.952;2022-12-18T14:54:19;37.75;;;17.88;;
8232;SDS011;4157;48.074;9.952;2022-12-18T14:56:48;35.50;;;16.35;;
8232;SDS011;4157;48.074;9.952;2022-12-18T14:59:17;37.90;;;16.92;;
8232;SDS011;4157;48.074;9.952;2022-12-18T15:01:46;34.60;;;15.25;;
8232;SDS011;4157;48.074;9.952;2022-12-18T15:04:25;37.53;;;16.27;;
8232;SDS011;4157;48.074;9.952;2022-12-18T15:07:03;34.00;;;16.60;;
8232;SDS011;4157;48.074;9.952;2022-12-18T15:09:32;37.33;;;17.17;;
8232;SDS011;4157;48.074;9.952;2022-12-18T15:12:00;35.87;;;16.63;;
8232;SDS011;4157;48.074;9.952;2022-12-18T15:14:33;34.80;;;15.63;;